sensor_id;sensor_type;location;lat;lon;timestamp;P1;durP1;ratioP1;P2;durP2;ratioP2
1837;SDS011;918;50.796;6.772;2024-02-26T00:01:39;1.93;;;1.83;;
1837;SDS011;918;50.796;6.772;2024-02-26T00:04:04;1.87;;;1.77;;
1837;SDS011;918;50.796;6.772;2024-02-26T00:06:30;2.00;;;1.90;;
1837;SDS011;918;50.796;6.772;2024-02-26T00:08:55;1.87;;;1.40;;
1837;SDS011;918;50.796;6.772;2024-02-26T00:11:20;1.70;;;1.60;;
1837;SDS011;918;50.796;6.772;2024-02-26T00:13:46;1.50;;;1.40;;
1837;SDS011;918;50.796;6.772;2024-02-26T00:16:11;1.70;;;1.60;;
1837;SDS011;918;50.796;6.772;2024-02-26T00:18:36;2.00;;;1.83;;
1837;SDS011;918;50.796;6.772;2024-02-26T00:21:02;1.83;;;1.60;;
1837;SDS011;918;50.796;6.772;2024-02-26T00:23:27;2.23;;;1.80;;
1837;SDS011;918;50.796;6.772;2024-02-26T00:25:53;1.47;;;1.30;;
1837;SDS011;918;50.796;6.772;2024-02-26T00:28:18;1.63;;;1.53;;
1837;SDS011;918;50.796;6.772;2024-02-26T00:30:45;1.50;;;1.40;;
1837;SDS011;918;50.796;6.772;2024-02-26T00:33:10;1.90;;;1.80;;
1837;SDS011;918;50.796;6.772;2024-02-26T00:35:36;1.23;;;1.13;;
1837;SDS011;918;50.796;6.772;2024-02-26T00:38:01;2.50;;;1.10;;
1837;SDS011;918;50.796;6.772;2024-02-26T00:40:28;1.73;;;1.47;;
1837;SDS011;918;50.796;6.772;2024-02-26T00:42:53;1.53;;;1.37;;
1837;SDS011;918;50.796;6.772;2024-02-26T00:45:18;1.30;;;1.20;;
1837;SDS011;918;50.796;6.772;2024-02-26T00:47:44;1.57;;;1.40;;
1837;SDS011;918;50.796;6.772;2024-02-26T00:50:10;1.50;;;1.40;;
1837;SDS011;918;50.796;6.772;2024-02-26T00:52:35;2.77;;;1.50;;
1837;SDS011;918;50.796;6.772;2024-02-26T00:55:02;1.50;;;1.40;;
1837;SDS011;918;50.796;6.772;2024-02-26T00:57:27;1.80;;;1.70;;
1837;SDS011;918;50.796;6.772;2024-02-26T00:59:52;1.63;;;1.53;;
1837;SDS011;918;50.796;6.772;2024-02-26T01:02:20;2.03;;;1.47;;
1837;SDS011;918;50.796;6.772;2024-02-26T01:04:45;1.80;;;1.70;;
1837;SDS011;918;50.796;6.772;2024-02-26T01:07:10;1.57;;;1.20;;
1837;SDS011;918;50.796;6.772;2024-02-26T01:09:35;1.67;;;1.57;;
1837;SDS011;918;50.796;6.772;2024-02-26T01:12:01;1.40;;;1.23;;
1837;SDS011;918;50.796;6.772;2024-02-26T01:14:27;1.40;;;1.30;;
1837;SDS011;918;50.796;6.772;2024-02-26T01:16:52;3.33;;;1.97;;
1837;SDS011;918;50.796;6.772;2024-02-26T01:19:18;1.80;;;1.70;;
1837;SDS011;918;50.796;6.772;2024-02-26T01:21:43;1.50;;;1.40;;
1837;SDS011;918;50.796;6.772;2024-02-26T01:24:08;1.80;;;1.50;;
1837;SDS011;918;50.796;6.772;2024-02-26T01:26:33;2.57;;;1.40;;
1837;SDS011;918;50.796;6.772;2024-02-26T01:28:59;1.53;;;1.43;;
1837;SDS011;918;50.796;6.772;2024-02-26T01:31:24;2.37;;;2.00;;
1837;SDS011;918;50.796;6.772;2024-02-26T01:33:49;1.50;;;1.40;;
1837;SDS011;918;50.796;6.772;2024-02-26T01:36:14;1.43;;;1.33;;
1837;SDS011;918;50.796;6.772;2024-02-26T01:38:40;3.30;;;1.60;;
1837;SDS011;918;50.796;6.772;2024-02-26T01:41:05;1.63;;;1.03;;
1837;SDS011;918;50.796;6.772;2024-02-26T01:43:31;1.43;;;1.33;;
1837;SDS011;918;50.796;6.772;2024-02-26T01:45:57;1.67;;;1.30;;
1837;SDS011;918;50.796;6.772;2024-02-26T01:48:22;1.20;;;1.10;;
1837;SDS011;918;50.796;6.772;2024-02-26T01:50:47;1.57;;;1.47;;
1837;SDS011;918;50.796;6.772;2024-02-26T01:53:12;1.30;;;1.20;;
1837;SDS011;918;50.796;6.772;2024-02-26T01:55:38;1.30;;;1.20;;
1837;SDS011;918;50.796;6.772;2024-02-26T01:58:03;1.17;;;1.07;;
1837;SDS011;918;50.796;6.772;2024-02-26T02:00:29;0.93;;;0.93;;
1837;SDS011;918;50.796;6.772;2024-02-26T02:02:54;2.53;;;1.70;;
1837;SDS011;918;50.796;6.772;2024-02-26T02:05:20;1.73;;;1.30;;
1837;SDS011;918;50.796;6.772;2024-02-26T02:07:45;2.13;;;1.53;;
1837;SDS011;918;50.796;6.772;2024-02-26T02:10:13;1.20;;;1.10;;
1837;SDS011;918;50.796;6.772;2024-02-26T02:12:38;1.53;;;1.30;;
1837;SDS011;918;50.796;6.772;2024-02-26T02:15:05;1.70;;;1.03;;
1837;SDS011;918;50.796;6.772;2024-02-26T02:17:31;2.90;;;1.10;;
1837;SDS011;918;50.796;6.772;2024-02-26T02:19:56;1.73;;;1.10;;
1837;SDS011;918;50.796;6.772;2024-02-26T02:22:21;2.30;;;1.10;;
1837;SDS011;918;50.796;6.772;2024-02-26T02:24:47;1.60;;;1.50;;
1837;SDS011;918;50.796;6.772;2024-02-26T02:27:13;1.60;;;1.43;;
1837;SDS011;918;50.796;6.772;2024-02-26T02:29:38;2.10;;;1.30;;
1837;SDS011;918;50.796;6.772;2024-02-26T02:32:04;1.63;;;1.53;;
1837;SDS011;918;50.796;6.772;2024-02-26T02:34:30;1.17;;;1.17;;
1837;SDS011;918;50.796;6.772;2024-02-26T02:36:56;1.30;;;1.20;;
1837;SDS011;918;50.796;6.772;2024-02-26T02:39:22;0.97;;;0.93;;
1837;SDS011;918;50.796;6.772;2024-02-26T02:41:47;1.27;;;1.17;;
1837;SDS011;918;50.796;6.772;2024-02-26T02:44:12;2.40;;;1.20;;
1837;SDS011;918;50.796;6.772;2024-02-26T02:46:38;1.43;;;1.33;;
1837;SDS011;918;50.796;6.772;2024-02-26T02:49:04;1.70;;;1.33;;
1837;SDS011;918;50.796;6.772;2024-02-26T02:51:29;1.17;;;1.17;;
1837;SDS011;918;50.796;6.772;2024-02-26T02:53:54;1.40;;;1.30;;
1837;SDS011;918;50.796;6.772;2024-02-26T02:56:20;1.90;;;1.47;;
1837;SDS011;918;50.796;6.772;2024-02-26T02:58:45;2.03;;;1.40;;
1837;SDS011;918;50.796;6.772;2024-02-26T03:01:10;1.37;;;1.27;;
1837;SDS011;918;50.796;6.772;2024-02-26T03:03:35;1.27;;;1.17;;
1837;SDS011;918;50.796;6.772;2024-02-26T03:06:02;1.43;;;1.33;;
1837;SDS011;918;50.796;6.772;2024-02-26T03:08:28;1.60;;;1.40;;
1837;SDS011;918;50.796;6.772;2024-02-26T03:10:53;1.57;;;1.47;;
1837;SDS011;918;50.796;6.772;2024-02-26T03:13:19;1.50;;;1.40;;
1837;SDS011;918;50.796;6.772;2024-02-26T03:15:44;1.30;;;1.20;;
1837;SDS011;918;50.796;6.772;2024-02-26T03:18:09;1.20;;;1.10;;
1837;SDS011;918;50.796;6.772;2024-02-26T03:20:34;1.30;;;1.20;;
1837;SDS011;918;50.796;6.772;2024-02-26T03:23:00;1.60;;;1.40;;
1837;SDS011;918;50.796;6.772;2024-02-26T03:25:25;1.30;;;1.20;;
1837;SDS011;918;50.796;6.772;2024-02-26T03:27:50;1.10;;;0.93;;
1837;SDS011;918;50.796;6.772;2024-02-26T03:30:16;1.80;;;1.70;;
1837;SDS011;918;50.796;6.772;2024-02-26T03:32:41;1.20;;;1.10;;
1837;SDS011;918;50.796;6.772;2024-02-26T03:35:06;1.50;;;1.20;;
1837;SDS011;918;50.796;6.772;2024-02-26T03:37:33;1.80;;;1.20;;
1837;SDS011;918;50.796;6.772;2024-02-26T03:39:58;1.33;;;1.10;;
1837;SDS011;918;50.796;6.772;2024-02-26T03:42:23;1.17;;;1.07;;
1837;SDS011;918;50.796;6.772;2024-02-26T03:44:49;1.20;;;1.20;;
1837;SDS011;918;50.796;6.772;2024-02-26T03:47:14;1.33;;;1.20;;
1837;SDS011;918;50.796;6.772;2024-02-26T03:49:41;2.40;;;1.20;;
1837;SDS011;918;50.796;6.772;2024-02-26T03:52:06;2.10;;;1.10;;
1837;SDS011;918;50.796;6.772;2024-02-26T03:54:31;1.00;;;1.00;;
1837;SDS011;918;50.796;6.772;2024-02-26T03:56:56;1.53;;;1.40;;
1837;SDS011;918;50.796;6.772;2024-02-26T03:59:22;1.30;;;1.20;;
1837;SDS011;918;50.796;6.772;2024-02-26T04:01:49;1.83;;;1.10;;
1837;SDS011;918;50.796;6.772;2024-02-26T04:04:14;1.20;;;1.10;;
1837;SDS011;918;50.796;6.772;2024-02-26T04:06:40;1.40;;;1.30;;
1837;SDS011;918;50.796;6.772;2024-02-26T04:09:09;1.33;;;1.10;;
1837;SDS011;918;50.796;6.772;2024-02-26T04:11:35;1.73;;;1.30;;
1837;SDS011;918;50.796;6.772;2024-02-26T04:14:00;1.33;;;1.23;;
1837;SDS011;918;50.796;6.772;2024-02-26T04:16:25;1.87;;;1.00;;
1837;SDS011;918;50.796;6.772;2024-02-26T04:18:51;1.80;;;1.37;;
1837;SDS011;918;50.796;6.772;2024-02-26T04:21:18;1.93;;;1.70;;
1837;SDS011;918;50.796;6.772;2024-02-26T04:23:43;1.63;;;1.53;;
1837;SDS011;918;50.796;6.772;2024-02-26T04:26:08;1.30;;;1.20;;
1837;SDS011;918;50.796;6.772;2024-02-26T04:28:34;1.83;;;1.73;;
1837;SDS011;918;50.796;6.772;2024-02-26T04:30:59;1.60;;;1.50;;
1837;SDS011;918;50.796;6.772;2024-02-26T04:33:24;2.13;;;1.67;;
1837;SDS011;918;50.796;6.772;2024-02-26T04:35:50;1.90;;;1.57;;
1837;SDS011;918;50.796;6.772;2024-02-26T04:38:15;2.33;;;1.50;;
1837;SDS011;918;50.796;6.772;2024-02-26T04:40:40;1.30;;;1.20;;
1837;SDS011;918;50.796;6.772;2024-02-26T04:43:05;1.30;;;1.20;;
1837;SDS011;918;50.796;6.772;2024-02-26T04:45:31;1.40;;;1.30;;
1837;SDS011;918;50.796;6.772;2024-02-26T04:47:56;1.60;;;1.50;;
1837;SDS011;918;50.796;6.772;2024-02-26T04:50:21;1.40;;;1.30;;
1837;SDS011;918;50.796;6.772;2024-02-26T04:52:46;1.23;;;1.20;;
1837;SDS011;918;50.796;6.772;2024-02-26T04:55:12;2.03;;;1.50;;
1837;SDS011;918;50.796;6.772;2024-02-26T04:57:37;2.20;;;1.57;;
1837;SDS011;918;50.796;6.772;2024-02-26T05:00:03;1.23;;;1.13;;
1837;SDS011;918;50.796;6.772;2024-02-26T05:02:30;1.73;;;1.63;;
1837;SDS011;918;50.796;6.772;2024-02-26T05:04:57;1.50;;;1.40;;
1837;SDS011;918;50.796;6.772;2024-02-26T05:07:22;1.40;;;1.30;;
1837;SDS011;918;50.796;6.772;2024-02-26T05:09:47;2.10;;;1.87;;
1837;SDS011;918;50.796;6.772;2024-02-26T05:12:14;1.47;;;1.37;;
1837;SDS011;918;50.796;6.772;2024-02-26T05:14:40;1.63;;;1.37;;
1837;SDS011;918;50.796;6.772;2024-02-26T05:17:05;2.60;;;1.50;;
1837;SDS011;918;50.796;6.772;2024-02-26T05:19:31;1.80;;;1.70;;
1837;SDS011;918;50.796;6.772;2024-02-26T05:21:56;2.13;;;1.50;;
1837;SDS011;918;50.796;6.772;2024-02-26T05:24:22;2.00;;;1.20;;
1837;SDS011;918;50.796;6.772;2024-02-26T05:26:47;1.70;;;1.60;;
1837;SDS011;918;50.796;6.772;2024-02-26T05:29:13;1.93;;;1.60;;
1837;SDS011;918;50.796;6.772;2024-02-26T05:31:38;1.67;;;1.57;;
1837;SDS011;918;50.796;6.772;2024-02-26T05:34:03;2.23;;;2.07;;
1837;SDS011;918;50.796;6.772;2024-02-26T05:36:28;1.70;;;1.60;;
1837;SDS011;918;50.796;6.772;2024-02-26T05:38:58;1.97;;;1.60;;
1837;SDS011;918;50.796;6.772;2024-02-26T05:41:24;2.20;;;2.10;;
1837;SDS011;918;50.796;6.772;2024-02-26T05:43:51;2.07;;;1.93;;
1837;SDS011;918;50.796;6.772;2024-02-26T05:46:17;2.30;;;2.13;;
1837;SDS011;918;50.796;6.772;2024-02-26T05:48:44;2.10;;;2.00;;
1837;SDS011;918;50.796;6.772;2024-02-26T05:51:09;4.00;;;2.13;;
1837;SDS011;918;50.796;6.772;2024-02-26T05:53:34;1.80;;;1.70;;
1837;SDS011;918;50.796;6.772;2024-02-26T05:56:00;2.20;;;1.87;;
1837;SDS011;918;50.796;6.772;2024-02-26T05:58:25;3.80;;;2.30;;
1837;SDS011;918;50.796;6.772;2024-02-26T06:00:50;2.70;;;2.23;;
1837;SDS011;918;50.796;6.772;2024-02-26T06:03:15;2.40;;;2.13;;
1837;SDS011;918;50.796;6.772;2024-02-26T06:05:41;2.33;;;2.13;;
1837;SDS011;918;50.796;6.772;2024-02-26T06:08:07;2.47;;;2.27;;
1837;SDS011;918;50.796;6.772;2024-02-26T06:10:32;2.03;;;1.93;;
1837;SDS011;918;50.796;6.772;2024-02-26T06:12:58;1.50;;;1.40;;
1837;SDS011;918;50.796;6.772;2024-02-26T06:15:23;2.70;;;2.50;;
1837;SDS011;918;50.796;6.772;2024-02-26T06:17:48;1.70;;;1.60;;
1837;SDS011;918;50.796;6.772;2024-02-26T06:20:13;2.03;;;1.83;;
1837;SDS011;918;50.796;6.772;2024-02-26T06:22:41;2.40;;;2.20;;
1837;SDS011;918;50.796;6.772;2024-02-26T06:25:07;2.13;;;1.93;;
1837;SDS011;918;50.796;6.772;2024-02-26T06:27:33;1.70;;;1.60;;
1837;SDS011;918;50.796;6.772;2024-02-26T06:29:58;3.13;;;1.83;;
1837;SDS011;918;50.796;6.772;2024-02-26T06:32:23;1.97;;;1.87;;
1837;SDS011;918;50.796;6.772;2024-02-26T06:34:48;2.57;;;2.40;;
1837;SDS011;918;50.796;6.772;2024-02-26T06:37:14;1.70;;;1.60;;
1837;SDS011;918;50.796;6.772;2024-02-26T06:39:39;2.07;;;1.87;;
1837;SDS011;918;50.796;6.772;2024-02-26T06:42:06;2.37;;;2.17;;
1837;SDS011;918;50.796;6.772;2024-02-26T06:44:31;2.57;;;2.37;;
1837;SDS011;918;50.796;6.772;2024-02-26T06:47:00;3.17;;;2.43;;
1837;SDS011;918;50.796;6.772;2024-02-26T06:49:26;2.27;;;2.17;;
1837;SDS011;918;50.796;6.772;2024-02-26T06:51:51;3.60;;;2.33;;
1837;SDS011;918;50.796;6.772;2024-02-26T06:54:17;2.03;;;1.93;;
1837;SDS011;918;50.796;6.772;2024-02-26T06:56:42;2.60;;;2.40;;
1837;SDS011;918;50.796;6.772;2024-02-26T06:59:07;2.57;;;2.37;;
1837;SDS011;918;50.796;6.772;2024-02-26T07:01:33;2.50;;;2.10;;
1837;SDS011;918;50.796;6.772;2024-02-26T07:03:58;2.73;;;2.07;;
1837;SDS011;918;50.796;6.772;2024-02-26T07:06:23;2.50;;;2.30;;
1837;SDS011;918;50.796;6.772;2024-02-26T07:08:48;2.50;;;2.30;;
1837;SDS011;918;50.796;6.772;2024-02-26T07:11:14;2.70;;;2.50;;
1837;SDS011;918;50.796;6.772;2024-02-26T07:13:39;3.43;;;2.40;;
1837;SDS011;918;50.796;6.772;2024-02-26T07:16:04;3.97;;;2.60;;
1837;SDS011;918;50.796;6.772;2024-02-26T07:18:30;2.47;;;2.27;;
1837;SDS011;918;50.796;6.772;2024-02-26T07:20:55;3.73;;;2.30;;
1837;SDS011;918;50.796;6.772;2024-02-26T07:23:21;2.57;;;2.37;;
1837;SDS011;918;50.796;6.772;2024-02-26T07:25:46;2.50;;;2.30;;
1837;SDS011;918;50.796;6.772;2024-02-26T07:28:13;2.37;;;2.23;;
1837;SDS011;918;50.796;6.772;2024-02-26T07:30:39;3.30;;;3.10;;
1837;SDS011;918;50.796;6.772;2024-02-26T07:33:04;2.70;;;2.50;;
1837;SDS011;918;50.796;6.772;2024-02-26T07:35:29;3.10;;;2.80;;
1837;SDS011;918;50.796;6.772;2024-02-26T07:37:55;2.53;;;2.37;;
1837;SDS011;918;50.796;6.772;2024-02-26T07:40:20;3.00;;;2.63;;
1837;SDS011;918;50.796;6.772;2024-02-26T07:42:45;2.70;;;2.50;;
1837;SDS011;918;50.796;6.772;2024-02-26T07:45:11;3.67;;;3.37;;
1837;SDS011;918;50.796;6.772;2024-02-26T07:47:36;3.20;;;2.33;;
1837;SDS011;918;50.796;6.772;2024-02-26T07:50:05;3.93;;;2.43;;
1837;SDS011;918;50.796;6.772;2024-02-26T07:52:32;2.97;;;2.70;;
1837;SDS011;918;50.796;6.772;2024-02-26T07:54:57;3.83;;;2.93;;
1837;SDS011;918;50.796;6.772;2024-02-26T07:57:23;3.43;;;3.23;;
1837;SDS011;918;50.796;6.772;2024-02-26T07:59:48;2.50;;;2.40;;
1837;SDS011;918;50.796;6.772;2024-02-26T08:02:15;2.80;;;2.60;;
1837;SDS011;918;50.796;6.772;2024-02-26T08:04:40;2.93;;;2.73;;
1837;SDS011;918;50.796;6.772;2024-02-26T08:07:05;3.23;;;2.53;;
1837;SDS011;918;50.796;6.772;2024-02-26T08:09:31;3.20;;;2.90;;
1837;SDS011;918;50.796;6.772;2024-02-26T08:11:56;3.27;;;3.07;;
1837;SDS011;918;50.796;6.772;2024-02-26T08:14:21;2.40;;;2.20;;
1837;SDS011;918;50.796;6.772;2024-02-26T08:16:46;2.90;;;2.70;;
1837;SDS011;918;50.796;6.772;2024-02-26T08:19:12;3.30;;;3.00;;
1837;SDS011;918;50.796;6.772;2024-02-26T08:21:39;3.03;;;2.83;;
1837;SDS011;918;50.796;6.772;2024-02-26T08:24:05;3.03;;;2.77;;
1837;SDS011;918;50.796;6.772;2024-02-26T08:26:30;3.63;;;2.87;;
1837;SDS011;918;50.796;6.772;2024-02-26T08:28:56;3.50;;;2.77;;
1837;SDS011;918;50.796;6.772;2024-02-26T08:31:22;3.10;;;2.80;;
1837;SDS011;918;50.796;6.772;2024-02-26T08:33:48;2.90;;;2.60;;
1837;SDS011;918;50.796;6.772;2024-02-26T08:36:13;5.03;;;3.00;;
1837;SDS011;918;50.796;6.772;2024-02-26T08:38:39;2.80;;;2.63;;
1837;SDS011;918;50.796;6.772;2024-02-26T08:41:04;3.00;;;2.80;;
1837;SDS011;918;50.796;6.772;2024-02-26T08:43:29;4.53;;;4.00;;
1837;SDS011;918;50.796;6.772;2024-02-26T08:45:55;3.03;;;2.83;;
1837;SDS011;918;50.796;6.772;2024-02-26T08:48:21;3.13;;;2.60;;
1837;SDS011;918;50.796;6.772;2024-02-26T08:50:46;4.27;;;3.40;;
1837;SDS011;918;50.796;6.772;2024-02-26T08:53:11;4.03;;;3.13;;
1837;SDS011;918;50.796;6.772;2024-02-26T08:55:36;2.80;;;2.60;;
1837;SDS011;918;50.796;6.772;2024-02-26T08:58:02;2.87;;;2.67;;
1837;SDS011;918;50.796;6.772;2024-02-26T09:00:27;3.03;;;2.80;;
1837;SDS011;918;50.796;6.772;2024-02-26T09:02:52;3.37;;;3.07;;
1837;SDS011;918;50.796;6.772;2024-02-26T09:05:18;3.10;;;2.83;;
1837;SDS011;918;50.796;6.772;2024-02-26T09:07:43;3.20;;;2.90;;
1837;SDS011;918;50.796;6.772;2024-02-26T09:10:08;3.80;;;3.50;;
1837;SDS011;918;50.796;6.772;2024-02-26T09:12:35;3.40;;;3.00;;
1837;SDS011;918;50.796;6.772;2024-02-26T09:15:01;3.57;;;3.03;;
1837;SDS011;918;50.796;6.772;2024-02-26T09:17:26;3.37;;;3.17;;
1837;SDS011;918;50.796;6.772;2024-02-26T09:19:52;4.50;;;2.90;;
1837;SDS011;918;50.796;6.772;2024-02-26T09:22:17;3.03;;;2.77;;
1837;SDS011;918;50.796;6.772;2024-02-26T09:24:42;3.23;;;3.03;;
1837;SDS011;918;50.796;6.772;2024-02-26T09:27:07;4.00;;;2.70;;
1837;SDS011;918;50.796;6.772;2024-02-26T09:29:35;3.07;;;2.87;;
1837;SDS011;918;50.796;6.772;2024-02-26T09:32:00;3.30;;;3.10;;
1837;SDS011;918;50.796;6.772;2024-02-26T09:34:26;3.80;;;2.97;;
1837;SDS011;918;50.796;6.772;2024-02-26T09:36:51;3.60;;;3.30;;
1837;SDS011;918;50.796;6.772;2024-02-26T09:39:16;3.43;;;3.13;;
1837;SDS011;918;50.796;6.772;2024-02-26T09:41:46;3.00;;;2.80;;
1837;SDS011;918;50.796;6.772;2024-02-26T09:44:12;3.43;;;3.20;;
1837;SDS011;918;50.796;6.772;2024-02-26T09:46:39;3.30;;;2.80;;
1837;SDS011;918;50.796;6.772;2024-02-26T09:49:04;3.43;;;3.13;;
1837;SDS011;918;50.796;6.772;2024-02-26T09:51:30;3.97;;;2.77;;
1837;SDS011;918;50.796;6.772;2024-02-26T09:53:57;2.60;;;2.40;;
1837;SDS011;918;50.796;6.772;2024-02-26T09:56:24;2.97;;;2.63;;
1837;SDS011;918;50.796;6.772;2024-02-26T09:58:50;3.33;;;3.03;;
1837;SDS011;918;50.796;6.772;2024-02-26T10:01:18;3.33;;;3.03;;
1837;SDS011;918;50.796;6.772;2024-02-26T10:03:45;4.63;;;3.40;;
1837;SDS011;918;50.796;6.772;2024-02-26T10:06:13;3.13;;;2.77;;
1837;SDS011;918;50.796;6.772;2024-02-26T10:08:38;4.00;;;2.77;;
1837;SDS011;918;50.796;6.772;2024-02-26T10:11:05;5.17;;;3.50;;
1837;SDS011;918;50.796;6.772;2024-02-26T10:13:31;3.43;;;3.17;;
1837;SDS011;918;50.796;6.772;2024-02-26T10:15:57;4.37;;;3.50;;
1837;SDS011;918;50.796;6.772;2024-02-26T10:18:23;3.03;;;2.83;;
1837;SDS011;918;50.796;6.772;2024-02-26T10:20:58;3.33;;;2.93;;
1837;SDS011;918;50.796;6.772;2024-02-26T10:23:25;3.50;;;3.20;;
1837;SDS011;918;50.796;6.772;2024-02-26T10:25:54;3.40;;;3.10;;
1837;SDS011;918;50.796;6.772;2024-02-26T10:28:20;3.53;;;3.23;;
1837;SDS011;918;50.796;6.772;2024-02-26T10:30:45;3.27;;;2.97;;
1837;SDS011;918;50.796;6.772;2024-02-26T10:33:11;3.20;;;2.90;;
1837;SDS011;918;50.796;6.772;2024-02-26T10:35:38;3.07;;;2.87;;
1837;SDS011;918;50.796;6.772;2024-02-26T10:38:05;2.90;;;2.70;;
1837;SDS011;918;50.796;6.772;2024-02-26T10:40:31;3.80;;;3.20;;
1837;SDS011;918;50.796;6.772;2024-02-26T10:42:57;3.67;;;3.37;;
1837;SDS011;918;50.796;6.772;2024-02-26T10:45:23;3.07;;;2.87;;
1837;SDS011;918;50.796;6.772;2024-02-26T10:47:48;4.10;;;3.30;;
1837;SDS011;918;50.796;6.772;2024-02-26T10:50:13;4.90;;;3.40;;
1837;SDS011;918;50.796;6.772;2024-02-26T10:52:41;4.57;;;3.57;;
1837;SDS011;918;50.796;6.772;2024-02-26T10:55:07;3.27;;;2.97;;
1837;SDS011;918;50.796;6.772;2024-02-26T10:57:34;3.70;;;3.20;;
1837;SDS011;918;50.796;6.772;2024-02-26T11:00:02;3.47;;;3.17;;
1837;SDS011;918;50.796;6.772;2024-02-26T11:02:30;3.17;;;2.97;;
1837;SDS011;918;50.796;6.772;2024-02-26T11:04:57;3.20;;;3.00;;
1837;SDS011;918;50.796;6.772;2024-02-26T11:07:23;3.50;;;3.23;;
1837;SDS011;918;50.796;6.772;2024-02-26T11:09:50;4.03;;;3.50;;
1837;SDS011;918;50.796;6.772;2024-02-26T11:12:17;3.67;;;3.30;;
1837;SDS011;918;50.796;6.772;2024-02-26T11:14:44;4.83;;;3.50;;
1837;SDS011;918;50.796;6.772;2024-02-26T11:17:11;3.90;;;3.60;;
1837;SDS011;918;50.796;6.772;2024-02-26T11:19:37;3.40;;;3.10;;
1837;SDS011;918;50.796;6.772;2024-02-26T11:22:03;3.53;;;3.23;;
1837;SDS011;918;50.796;6.772;2024-02-26T11:24:29;3.43;;;3.13;;
1837;SDS011;918;50.796;6.772;2024-02-26T11:26:56;3.37;;;3.10;;
1837;SDS011;918;50.796;6.772;2024-02-26T11:29:28;3.27;;;3.07;;
1837;SDS011;918;50.796;6.772;2024-02-26T11:31:59;3.30;;;3.00;;
1837;SDS011;918;50.796;6.772;2024-02-26T11:34:25;3.80;;;3.47;;
1837;SDS011;918;50.796;6.772;2024-02-26T11:36:50;3.77;;;3.50;;
1837;SDS011;918;50.796;6.772;2024-02-26T11:39:15;3.57;;;3.27;;
1837;SDS011;918;50.796;6.772;2024-02-26T11:41:42;3.50;;;3.23;;
1837;SDS011;918;50.796;6.772;2024-02-26T11:44:07;3.53;;;3.23;;
1837;SDS011;918;50.796;6.772;2024-02-26T11:46:33;3.63;;;3.33;;
1837;SDS011;918;50.796;6.772;2024-02-26T11:51:50;3.03;;;2.83;;
1837;SDS011;918;50.796;6.772;2024-02-26T11:54:37;3.00;;;2.73;;
1837;SDS011;918;50.796;6.772;2024-02-26T12:05:23;3.23;;;3.03;;
1837;SDS011;918;50.796;6.772;2024-02-26T12:07:52;3.43;;;3.13;;
1837;SDS011;918;50.796;6.772;2024-02-26T12:15:23;2.83;;;2.63;;
1837;SDS011;918;50.796;6.772;2024-02-26T12:17:48;3.30;;;3.00;;
1837;SDS011;918;50.796;6.772;2024-02-26T12:20:14;2.90;;;2.70;;
1837;SDS011;918;50.796;6.772;2024-02-26T12:22:42;3.50;;;3.20;;
1837;SDS011;918;50.796;6.772;2024-02-26T12:25:10;3.60;;;3.37;;
1837;SDS011;918;50.796;6.772;2024-02-26T12:27:35;3.73;;;3.50;;
1837;SDS011;918;50.796;6.772;2024-02-26T12:30:02;3.83;;;3.53;;
1837;SDS011;918;50.796;6.772;2024-02-26T12:32:28;3.27;;;2.97;;
1837;SDS011;918;50.796;6.772;2024-02-26T12:34:53;3.83;;;3.53;;
1837;SDS011;918;50.796;6.772;2024-02-26T12:37:18;3.77;;;3.47;;
1837;SDS011;918;50.796;6.772;2024-02-26T12:39:44;3.93;;;3.53;;
1837;SDS011;918;50.796;6.772;2024-02-26T12:42:10;3.87;;;3.57;;
1837;SDS011;918;50.796;6.772;2024-02-26T12:44:36;3.50;;;3.20;;
1837;SDS011;918;50.796;6.772;2024-02-26T12:47:02;6.13;;;4.97;;
1837;SDS011;918;50.796;6.772;2024-02-26T12:49:28;5.77;;;5.17;;
1837;SDS011;918;50.796;6.772;2024-02-26T12:51:54;4.43;;;4.03;;
1837;SDS011;918;50.796;6.772;2024-02-26T12:54:20;4.63;;;3.87;;
1837;SDS011;918;50.796;6.772;2024-02-26T12:56:46;4.27;;;3.97;;
1837;SDS011;918;50.796;6.772;2024-02-26T12:59:12;3.73;;;3.43;;
1837;SDS011;918;50.796;6.772;2024-02-26T13:01:37;4.03;;;3.73;;
1837;SDS011;918;50.796;6.772;2024-02-26T13:04:02;4.37;;;3.60;;
1837;SDS011;918;50.796;6.772;2024-02-26T13:06:31;4.33;;;4.00;;
1837;SDS011;918;50.796;6.772;2024-02-26T13:08:57;4.80;;;4.40;;
1837;SDS011;918;50.796;6.772;2024-02-26T13:11:25;5.20;;;3.70;;
1837;SDS011;918;50.796;6.772;2024-02-26T13:13:51;4.20;;;3.90;;
1837;SDS011;918;50.796;6.772;2024-02-26T13:16:16;3.40;;;3.20;;
1837;SDS011;918;50.796;6.772;2024-02-26T13:18:41;5.80;;;4.00;;
1837;SDS011;918;50.796;6.772;2024-02-26T13:21:08;4.37;;;4.03;;
1837;SDS011;918;50.796;6.772;2024-02-26T13:23:40;5.37;;;4.80;;
1837;SDS011;918;50.796;6.772;2024-02-26T13:26:06;6.07;;;5.47;;
1837;SDS011;918;50.796;6.772;2024-02-26T13:28:32;6.10;;;5.60;;
1837;SDS011;918;50.796;6.772;2024-02-26T13:30:58;5.60;;;5.20;;
1837;SDS011;918;50.796;6.772;2024-02-26T13:33:26;6.83;;;6.20;;
1837;SDS011;918;50.796;6.772;2024-02-26T13:35:53;5.03;;;4.63;;
1837;SDS011;918;50.796;6.772;2024-02-26T13:38:19;5.50;;;5.10;;
1837;SDS011;918;50.796;6.772;2024-02-26T13:40:44;5.10;;;4.30;;
1837;SDS011;918;50.796;6.772;2024-02-26T13:43:09;4.50;;;4.20;;
1837;SDS011;918;50.796;6.772;2024-02-26T13:45:35;5.03;;;4.20;;
1837;SDS011;918;50.796;6.772;2024-02-26T13:48:02;4.80;;;4.43;;
1837;SDS011;918;50.796;6.772;2024-02-26T13:50:28;4.53;;;4.20;;
1837;SDS011;918;50.796;6.772;2024-02-26T13:52:53;3.90;;;3.60;;
1837;SDS011;918;50.796;6.772;2024-02-26T13:55:20;4.93;;;4.37;;
1837;SDS011;918;50.796;6.772;2024-02-26T13:57:47;4.70;;;4.40;;
1837;SDS011;918;50.796;6.772;2024-02-26T14:00:13;5.47;;;4.57;;
1837;SDS011;918;50.796;6.772;2024-02-26T14:02:38;4.40;;;4.00;;
1837;SDS011;918;50.796;6.772;2024-02-26T14:05:04;4.93;;;4.53;;
1837;SDS011;918;50.796;6.772;2024-02-26T14:07:30;4.47;;;4.07;;
1837;SDS011;918;50.796;6.772;2024-02-26T14:09:57;4.47;;;4.10;;
1837;SDS011;918;50.796;6.772;2024-02-26T14:12:25;4.90;;;4.40;;
1837;SDS011;918;50.796;6.772;2024-02-26T14:14:50;5.00;;;4.60;;
1837;SDS011;918;50.796;6.772;2024-02-26T14:17:18;4.47;;;4.07;;
1837;SDS011;918;50.796;6.772;2024-02-26T14:19:43;5.30;;;4.50;;
1837;SDS011;918;50.796;6.772;2024-02-26T14:22:12;4.33;;;3.93;;
1837;SDS011;918;50.796;6.772;2024-02-26T14:24:38;4.30;;;3.80;;
1837;SDS011;918;50.796;6.772;2024-02-26T14:27:04;4.40;;;4.00;;
1837;SDS011;918;50.796;6.772;2024-02-26T14:29:30;5.10;;;4.70;;
1837;SDS011;918;50.796;6.772;2024-02-26T14:31:55;4.50;;;4.10;;
1837;SDS011;918;50.796;6.772;2024-02-26T14:34:21;5.20;;;4.80;;
1837;SDS011;918;50.796;6.772;2024-02-26T14:36:47;4.80;;;4.30;;
1837;SDS011;918;50.796;6.772;2024-02-26T14:39:12;5.10;;;4.70;;
1837;SDS011;918;50.796;6.772;2024-02-26T14:41:37;4.30;;;3.90;;
1837;SDS011;918;50.796;6.772;2024-02-26T14:44:03;6.03;;;5.47;;
1837;SDS011;918;50.796;6.772;2024-02-26T14:46:28;4.93;;;4.43;;
1837;SDS011;918;50.796;6.772;2024-02-26T14:48:54;5.60;;;4.60;;
1837;SDS011;918;50.796;6.772;2024-02-26T14:51:21;5.00;;;4.60;;
1837;SDS011;918;50.796;6.772;2024-02-26T14:53:47;5.70;;;5.20;;
1837;SDS011;918;50.796;6.772;2024-02-26T14:56:12;4.93;;;4.43;;
1837;SDS011;918;50.796;6.772;2024-02-26T14:58:38;5.57;;;5.07;;
1837;SDS011;918;50.796;6.772;2024-02-26T15:01:03;5.00;;;4.60;;
1837;SDS011;918;50.796;6.772;2024-02-26T15:03:29;4.80;;;4.40;;
1837;SDS011;918;50.796;6.772;2024-02-26T15:05:54;6.20;;;5.60;;
1837;SDS011;918;50.796;6.772;2024-02-26T15:08:19;6.03;;;5.40;;
1837;SDS011;918;50.796;6.772;2024-02-26T15:10:44;5.83;;;5.30;;
1837;SDS011;918;50.796;6.772;2024-02-26T15:13:13;5.70;;;5.10;;
1837;SDS011;918;50.796;6.772;2024-02-26T15:15:42;5.90;;;5.40;;
1837;SDS011;918;50.796;6.772;2024-02-26T15:18:08;7.07;;;5.50;;
1837;SDS011;918;50.796;6.772;2024-02-26T15:20:36;6.07;;;5.40;;
1837;SDS011;918;50.796;6.772;2024-02-26T15:23:02;5.93;;;5.33;;
1837;SDS011;918;50.796;6.772;2024-02-26T15:25:27;6.20;;;5.60;;
1837;SDS011;918;50.796;6.772;2024-02-26T15:27:52;6.37;;;5.77;;
1837;SDS011;918;50.796;6.772;2024-02-26T15:30:18;10.47;;;9.37;;
1837;SDS011;918;50.796;6.772;2024-02-26T15:32:43;9.07;;;6.60;;
1837;SDS011;918;50.796;6.772;2024-02-26T15:35:09;6.93;;;6.33;;
1837;SDS011;918;50.796;6.772;2024-02-26T15:37:35;7.37;;;6.60;;